Time;durP1;ratioP1;P1;durP2;ratioP2;P2;SDS_P1;SDS_P2;PMS_P1;PMS_P2;Temp;Humidity;BMP_temperature;BMP_pressure;BME280_temperature;BME280_humidity;BME280_pressure;Samples;Min_cycle;Max_cycle;Signal;HPM_P1;HPM_P2
2021/11/01 00:00:54;;;;;;;7.70;4.30;;;;;;;11.14;70.85;94622.56;5092192;28;20063;-48
2021/11/01 00:03:22;;;;;;;7.60;3.90;;;;;;;11.18;70.64;94629.59;5083259;28;20048;-47
2021/11/01 00:05:49;;;;;;;6.72;3.55;;;;;;;11.03;70.93;94621.66;5070741;28;20142;-48
2021/11/01 00:08:16;;;;;;;4.60;2.70;;;;;;;11.07;70.57;94625.97;5088426;28;20119;-49
2021/11/01 00:10:44;;;;;;;5.45;3.08;;;;;;;11.13;70.60;94623.72;5107739;28;20105;-46
2021/11/01 00:13:11;;;;;;;4.75;3.22;;;;;;;11.21;70.17;94620.75;5071277;28;20416;-51
2021/11/01 00:15:38;;;;;;;4.57;3.10;;;;;;;11.31;69.83;94621.22;5071726;28;20462;-47
2021/11/01 00:18:05;;;;;;;5.07;3.35;;;;;;;11.33;69.67;94622.44;5084675;28;20052;-46
2021/11/01 00:20:32;;;;;;;4.72;3.20;;;;;;;11.35;69.73;94617.44;5091945;28;20130;-47
2021/11/01 00:22:58;;;;;;;4.80;3.10;;;;;;;11.23;70.74;94621.16;5089213;28;20122;-53
2021/11/01 00:25:25;;;;;;;4.10;3.13;;;;;;;11.18;70.73;94610.66;5075853;28;20404;-51
2021/11/01 00:27:53;;;;;;;4.15;3.10;;;;;;;11.10;71.36;94600.09;5091776;28;20101;-49
2021/11/01 00:30:20;;;;;;;5.25;3.50;;;;;;;11.08;71.49;94602.38;5091452;28;20444;-48
2021/11/01 00:32:47;;;;;;;5.35;3.85;;;;;;;11.04;71.51;94596.94;5075179;28;20127;-49
2021/11/01 00:35:15;;;;;;;7.13;5.32;;;;;;;11.22;70.80;94602.59;5078510;28;20047;-47
2021/11/01 00:37:43;;;;;;;10.50;4.47;;;;;;;11.17;71.53;94602.88;5091538;28;20501;-47
2021/11/01 00:40:10;;;;;;;6.50;4.28;;;;;;;11.21;71.45;94587.47;5080270;28;20497;-46
2021/11/01 00:42:37;;;;;;;6.28;4.40;;;;;;;11.18;71.52;94590.94;5086748;28;20059;-49
2021/11/01 00:45:04;;;;;;;6.75;4.10;;;;;;;11.21;71.09;94587.47;5074890;28;20045;-50
2021/11/01 00:47:31;;;;;;;6.90;4.18;;;;;;;11.30;70.58;94587.97;5071355;28;20438;-50
2021/11/01 00:49:59;;;;;;;6.00;3.72;;;;;;;11.46;69.88;94591.25;5078114;28;20046;-50
2021/11/01 00:52:27;;;;;;;5.03;3.38;;;;;;;11.45;70.01;94588.91;5089781;28;20473;-52
2021/11/01 00:55:06;;;;;;;5.55;3.67;;;;;;;11.41;70.04;94580.75;5089597;28;20431;-49
2021/11/01 00:57:33;;;;;;;4.78;3.42;;;;;;;11.21;70.99;94582.03;5091137;28;20086;-47
2021/11/01 01:00:01;;;;;;;6.47;3.92;;;;;;;10.90;72.04;94577.81;5091014;28;20135;-47
2021/11/01 01:02:34;;;;;;;6.03;3.95;;;;;;;10.91;72.15;94571.25;5082949;28;20390;-48
2021/11/01 01:05:02;;;;;;;;;;;;;;;11.07;71.18;94569.13;5073203;28;20428;-47
2021/11/01 01:07:30;;;;;;;6.32;3.60;;;;;;;11.09;70.83;94572.25;5091018;28;19920;-48
2021/11/01 01:09:57;;;;;;;4.72;3.58;;;;;;;11.24;70.35;94573.19;5086316;28;20448;-48
2021/11/01 01:12:24;;;;;;;7.45;3.70;;;;;;;11.41;69.47;94575.34;5070139;28;20072;-49
2021/11/01 01:14:57;;;;;;;6.65;3.95;;;;;;;11.37;69.69;94571.78;5075871;28;20048;-48
2021/11/01 01:17:26;;;;;;;7.82;4.20;;;;;;;11.25;70.04;94569.34;5090766;28;20089;-49
2021/11/01 01:22:31;;;;;;;6.30;3.95;;;;;;;11.05;70.82;94567.94;5087981;28;20171;-52
2021/11/01 01:25:03;;;;;;;6.80;3.92;;;;;;;10.86;70.82;94575.06;5070982;28;20053;-49
2021/11/01 01:27:31;;;;;;;7.13;5.00;;;;;;;11.04;69.98;94585.34;5071221;28;20440;-48
2021/11/01 01:29:58;;;;;;;6.75;4.45;;;;;;;10.81;70.87;94569.97;5081303;28;20094;-48
2021/11/01 01:32:25;;;;;;;7.00;4.38;;;;;;;10.82;71.41;94573.44;5086096;28;20206;-51
2021/11/01 01:34:52;;;;;;;8.73;4.13;;;;;;;10.88;70.61;94575.47;5070793;28;20236;-50
2021/11/01 01:37:19;;;;;;;5.85;4.10;;;;;;;10.95;70.42;94566.66;5071802;28;20132;-48
2021/11/01 01:39:46;;;;;;;5.63;3.65;;;;;;;11.14;70.14;94560.31;5074570;28;20047;-49
2021/11/01 01:42:13;;;;;;;5.60;3.67;;;;;;;10.87;70.85;94565.78;5085227;28;20152;-51
2021/11/01 01:44:40;;;;;;;5.88;4.10;;;;;;;11.13;70.07;94564.19;5081272;28;20528;-51
2021/11/01 01:47:08;;;;;;;5.90;3.53;;;;;;;10.96;70.22;94568.22;5081806;28;20040;-49
2021/11/01 01:49:36;;;;;;;6.05;3.92;;;;;;;10.70;71.01;94560.94;5094634;28;20531;-49
2021/11/01 01:52:04;;;;;;;6.30;3.65;;;;;;;10.45;72.60;94566.00;5093369;28;20056;-48
2021/11/01 01:54:31;;;;;;;7.88;3.90;;;;;;;10.52;72.38;94569.56;5079301;28;20130;-48
2021/11/01 01:56:58;;;;;;;5.03;3.45;;;;;;;10.70;71.57;94566.34;5074173;28;20045;-49
2021/11/01 01:59:26;;;;;;;6.03;3.88;;;;;;;10.21;72.89;94572.56;5074715;28;20109;-48
2021/11/01 02:01:53;;;;;;;5.50;3.83;;;;;;;10.05;74.23;94556.50;5074020;28;20053;-49
2021/11/01 02:04:24;;;;;;;6.07;3.75;;;;;;;10.22;73.47;94547.88;5073294;28;20075;-50
2021/11/01 02:07:12;;;;;;;5.82;3.83;;;;;;;10.33;72.82;94553.44;5093258;28;20050;-47
2021/11/01 02:10:12;;;;;;;5.75;3.83;;;;;;;10.41;71.80;94544.31;5094430;28;20496;-52
2021/11/01 02:12:50;;;;;;;8.02;3.83;;;;;;;10.26;72.20;94542.53;5075533;28;20456;-48
2021/11/01 02:15:40;;;;;;;5.00;4.00;;;;;;;9.87;73.21;94544.59;5073771;28;20055;-52
2021/11/01 02:18:09;;;;;;;4.90;3.30;;;;;;;10.16;72.76;94545.84;5089178;28;20163;-47
2021/11/01 02:20:35;;;;;;;6.50;4.10;;;;;;;10.36;71.84;94536.50;5094185;28;20048;-50
2021/11/01 02:23:13;;;;;;;5.63;3.88;;;;;;;10.09;73.18;94548.44;5083061;28;20044;-49
2021/11/01 02:25:52;;;;;;;6.30;3.95;;;;;;;9.79;74.54;94546.41;5086517;28;20044;-50
2021/11/01 02:28:24;;;;;;;5.95;3.70;;;;;;;9.50;75.79;94548.63;5093674;28;20122;-49
2021/11/01 02:30:52;;;;;;;5.53;3.67;;;;;;;9.80;75.14;94537.16;5091553;28;20052;-48
2021/11/01 02:33:21;;;;;;;6.10;4.05;;;;;;;10.21;72.99;94530.09;5073380;28;20051;-51
2021/11/01 02:35:51;;;;;;;5.30;3.80;;;;;;;9.83;74.22;94537.22;5090660;28;20066;-48
2021/11/01 02:38:22;;;;;;;5.13;3.60;;;;;;;9.71;75.20;94540.09;5092512;28;20048;-48
2021/11/01 02:40:51;;;;;;;5.40;3.80;;;;;;;9.69;75.53;94539.69;5073914;28;20123;-57
2021/11/01 02:43:18;;;;;;;5.70;3.92;;;;;;;9.99;74.24;94539.78;5072930;28;20036;-49
2021/11/01 02:45:45;;;;;;;5.35;3.50;;;;;;;10.10;73.42;94536.47;5073626;28;20139;-50
2021/11/01 02:48:13;;;;;;;5.30;4.15;;;;;;;10.04;73.40;94530.59;5073411;28;20147;-49
2021/11/01 02:50:40;;;;;;;5.65;3.78;;;;;;;10.00;73.23;94538.63;5081484;28;20055;-47
2021/11/01 02:53:07;;;;;;;4.82;3.47;;;;;;;10.20;72.57;94528.50;5083632;28;20037;-50
2021/11/01 02:55:35;;;;;;;5.72;3.47;;;;;;;10.19;72.40;94526.97;5074285;28;20041;-46
2021/11/01 02:58:03;;;;;;;5.55;3.72;;;;;;;10.11;72.57;94521.81;5073834;28;20044;-50
2021/11/01 03:00:32;;;;;;;5.90;3.80;;;;;;;10.41;71.84;94522.69;5087349;28;20053;-52
2021/11/01 03:02:59;;;;;;;5.82;3.80;;;;;;;9.96;73.96;94524.31;5082051;28;20036;-52
2021/11/01 03:05:30;;;;;;;5.70;3.60;;;;;;;9.69;75.13;94518.09;5076951;28;20056;-48
2021/11/01 03:07:58;;;;;;;6.43;3.75;;;;;;;9.92;74.33;94523.47;5074131;28;20504;-50
2021/11/01 03:10:26;;;;;;;6.20;3.60;;;;;;;10.13;73.50;94512.19;5073091;28;20045;-51
2021/11/01 03:12:55;;;;;;;5.25;3.65;;;;;;;10.08;73.71;94509.81;5072608;28;20123;-52
2021/11/01 03:15:27;;;;;;;5.75;3.83;;;;;;;10.19;73.03;94509.97;5086562;28;20165;-49
2021/11/01 03:18:06;;;;;;;6.78;4.10;;;;;;;10.13;73.03;94511.44;5093091;28;20431;-53
2021/11/01 03:20:39;;;;;;;6.13;3.80;;;;;;;10.16;72.73;94500.66;5093181;28;20127;-52
2021/11/01 03:23:10;;;;;;;5.65;3.90;;;;;;;9.73;74.65;94499.25;5078427;28;20054;-53
2021/11/01 03:25:41;;;;;;;6.85;4.05;;;;;;;9.86;74.19;94492.50;5072944;28;20050;-50
2021/11/01 03:28:11;;;;;;;6.95;3.80;;;;;;;9.92;74.61;94499.16;5091753;28;20032;-49
2021/11/01 03:30:41;;;;;;;6.50;4.45;;;;;;;9.85;74.27;94493.66;5080851;28;20043;-49
2021/11/01 03:33:08;;;;;;;6.20;3.97;;;;;;;10.11;73.75;94482.06;5072755;28;20127;-51
2021/11/01 03:35:36;;;;;;;5.88;4.00;;;;;;;10.20;73.63;94484.50;5072883;28;20044;-50
2021/11/01 03:38:03;;;;;;;10.43;4.18;;;;;;;10.16;73.79;94484.44;5073966;28;20051;-48
2021/11/01 03:40:33;;;;;;;6.00;3.75;;;;;;;10.22;73.00;94485.69;5092832;28;20044;-51
2021/11/01 03:43:04;;;;;;;5.20;3.75;;;;;;;10.12;72.82;94478.22;5092742;28;20122;-48
2021/11/01 03:45:33;;;;;;;5.53;3.75;;;;;;;10.33;72.50;94471.56;5085054;28;20043;-50
2021/11/01 03:48:03;;;;;;;5.53;3.50;;;;;;;10.27;72.36;94480.00;5092311;28;20093;-50
2021/11/01 03:50:39;;;;;;;5.75;3.88;;;;;;;10.01;73.65;94483.47;5092487;28;20048;-49
2021/11/01 03:53:06;;;;;;;4.85;3.42;;;;;;;9.89;74.06;94485.59;5085496;28;20037;-50
2021/11/01 03:55:34;;;;;;;5.50;3.25;;;;;;;9.99;73.64;94487.69;5072442;28;20071;-51
2021/11/01 03:58:02;;;;;;;7.32;4.07;;;;;;;10.18;73.09;94465.94;5072142;28;20041;-48
2021/11/01 04:00:34;;;;;;;6.53;3.88;;;;;;;10.15;72.80;94460.50;5087916;28;20044;-49
2021/11/01 04:03:02;;;;;;;6.10;3.63;;;;;;;10.31;72.81;94468.47;5085483;28;20090;-48
2021/11/01 04:05:30;;;;;;;5.82;4.00;;;;;;;10.25;72.89;94457.16;5072427;28;20044;-49
2021/11/01 04:07:58;;;;;;;6.53;3.60;;;;;;;10.19;73.25;94464.03;5072379;28;20047;-48
2021/11/01 04:10:27;;;;;;;6.10;3.70;;;;;;;10.16;73.12;94467.47;5072257;28;20052;-50
2021/11/01 04:12:54;;;;;;;5.55;3.95;;;;;;;10.29;72.84;94460.72;5071699;28;20047;-47
2021/11/01 04:15:24;;;;;;;5.63;3.80;;;;;;;10.34;72.57;94463.13;5083985;28;20048;-51
2021/11/01 04:17:57;;;;;;;9.27;4.00;;;;;;;10.35;72.04;94470.06;5092205;28;20048;-49
2021/11/01 04:21:10;;;;;;;;;;;;;;;10.05;72.49;94472.72;5092614;28;20076;-47
2021/11/01 04:23:12;;;;;;;6.55;3.50;;;;;;;10.15;72.60;94471.31;5068666;28;19924;-48
2021/11/01 04:25:39;;;;;;;5.28;3.30;;;;;;;10.02;73.01;94468.81;5085567;28;20066;-49
2021/11/01 04:28:06;;;;;;;7.18;3.67;;;;;;;10.30;72.26;94473.06;5092060;28;20036;-50
2021/11/01 04:30:38;;;;;;;5.00;3.50;;;;;;;10.21;72.32;94462.53;5086935;28;20103;-48
2021/11/01 04:33:10;;;;;;;5.72;3.20;;;;;;;10.19;72.25;94470.19;5071367;28;20048;-48
2021/11/01 04:35:38;;;;;;;4.80;3.13;;;;;;;10.01;73.11;94472.66;5071758;28;20079;-47
2021/11/01 04:38:29;;;;;;;5.50;3.58;;;;;;;10.00;72.52;94476.50;5081593;28;20512;-49
2021/11/01 04:54:17;;;;;;;4.10;2.97;;;;;;;10.11;71.40;94467.75;5071113;28;20053;-47
2021/11/01 04:56:45;;;;;;;4.85;2.67;;;;;;;10.12;71.12;94472.81;5071321;28;20064;-49
2021/11/01 04:59:12;;;;;;;6.82;2.78;;;;;;;10.11;71.11;94478.56;5079988;28;20431;-47
2021/11/01 05:01:43;;;;;;;5.00;2.80;;;;;;;10.10;71.18;94474.31;5080863;28;20044;-47
2021/11/01 05:04:15;;;;;;;5.53;3.33;;;;;;;9.92;72.14;94479.47;5071076;28;20075;-50
2021/11/01 05:06:48;;;;;;;3.83;2.47;;;;;;;10.05;71.70;94478.91;5071280;28;20052;-47
2021/11/01 05:09:21;;;;;;;3.97;2.40;;;;;;;10.06;70.85;94480.44;5071134;28;20040;-48
2021/11/01 05:14:21;;;;;;;3.67;2.28;;;;;;;9.81;71.89;94480.09;5086387;28;20131;-49
2021/11/01 05:19:39;;;;;;;3.20;2.20;;;;;;;9.65;73.15;94484.06;5079762;28;20082;-52
2021/11/01 05:22:22;;;;;;;3.70;2.55;;;;;;;9.90;72.06;94481.75;5091311;28;20043;-48
2021/11/01 05:27:57;;;;;;;3.78;2.70;;;;;;;9.94;70.55;94477.94;5082527;28;20435;-49
2021/11/01 05:30:37;;;;;;;4.25;2.45;;;;;;;10.31;68.45;94485.47;5085944;28;20526;-50
2021/11/01 05:35:39;;;;;;;3.17;2.20;;;;;;;9.75;71.17;94486.13;5074692;28;20085;-50
2021/11/01 05:38:07;;;;;;;4.38;2.45;;;;;;;9.71;71.71;94486.09;5085781;28;20063;-48
2021/11/01 05:40:35;;;;;;;4.03;2.60;;;;;;;9.65;72.61;94487.56;5070885;28;20044;-46
2021/11/01 05:43:03;;;;;;;3.97;2.30;;;;;;;9.43;73.33;94494.50;5078755;28;20182;-47
2021/11/01 05:45:30;;;;;;;3.88;2.72;;;;;;;9.59;72.93;94499.78;5070891;28;20084;-50
2021/11/01 05:47:59;;;;;;;3.10;2.17;;;;;;;9.68;71.99;94508.41;5078137;28;20047;-50
2021/11/01 05:50:29;;;;;;;4.43;2.75;;;;;;;9.79;71.06;94511.31;5090933;28;20044;-48
2021/11/01 05:52:58;;;;;;;3.63;2.08;;;;;;;9.81;70.81;94515.22;5089005;28;20056;-47
2021/11/01 06:03:59;;;;;;;4.13;2.50;;;;;;;10.04;70.88;94519.78;5080980;28;19920;-47
2021/11/01 06:13:53;;;;;;;4.15;2.40;;;;;;;9.56;74.04;94528.28;5070163;28;20401;-46
2021/11/01 06:16:21;;;;;;;4.90;2.75;;;;;;;9.72;73.39;94524.69;5070458;28;20132;-48
2021/11/01 06:18:49;;;;;;;3.83;2.10;;;;;;;9.85;72.80;94528.78;5070477;28;20170;-46
2021/11/01 06:21:18;;;;;;;3.83;2.35;;;;;;;9.96;72.00;94537.81;5070534;28;20067;-46
2021/11/01 06:23:50;;;;;;;4.68;2.35;;;;;;;10.02;71.45;94539.06;5075867;28;20561;-46
2021/11/01 06:26:18;;;;;;;4.20;2.43;;;;;;;10.22;69.60;94547.88;5094464;28;20113;-48
2021/11/01 06:28:51;;;;;;;5.18;2.60;;;;;;;10.18;69.25;94549.75;5094101;28;20646;-49
2021/11/01 06:31:27;;;;;;;3.72;2.40;;;;;;;10.19;69.12;94558.63;5083658;28;20048;-48
2021/11/01 06:50:52;;;;;;;5.75;3.60;;;;;;;9.71;72.14;94636.56;5094047;28;20388;-49
2021/11/01 06:53:49;;;;;;;5.00;3.25;;;;;;;9.64;73.05;94633.72;5075033;28;20062;-49
2021/11/01 07:15:24;;;;;;;8.20;5.10;;;;;;;9.54;77.81;94676.38;5075297;28;20497;-48
2021/11/01 08:25:36;;;;;;;9.18;6.88;;;;;;;10.72;82.25;94726.34;5072138;28;20131;-47
2021/11/01 08:51:49;;;;;;;9.40;6.70;;;;;;;10.61;83.64;94736.22;5071507;28;20048;-49
2021/11/01 09:05:36;;;;;;;8.57;6.32;;;;;;;10.47;85.22;94761.13;5070282;28;20044;-50
2021/11/01 09:25:09;;;;;;;5.70;3.90;;;;;;;10.78;79.40;94776.31;5071335;28;20488;-50
2021/11/01 09:27:38;;;;;;;7.00;3.40;;;;;;;10.70;79.22;94771.94;5071244;28;20406;-50
2021/11/01 09:41:07;;;;;;;5.10;3.00;;;;;;;10.81;78.35;94789.13;5070957;28;20071;-49
2021/11/01 09:43:36;;;;;;;5.13;3.38;;;;;;;10.80;78.04;94790.28;5070263;28;20156;-50
2021/11/01 09:46:10;;;;;;;6.18;3.00;;;;;;;10.82;76.29;94804.22;5070015;28;20144;-50
2021/11/01 09:48:38;;;;;;;4.65;3.00;;;;;;;10.80;76.16;94811.91;5072812;28;20555;-51
2021/11/01 09:51:06;;;;;;;4.13;2.65;;;;;;;10.60;77.62;94803.06;5090103;28;20051;-51
2021/11/01 09:53:40;;;;;;;3.95;2.65;;;;;;;10.69;76.07;94819.06;5072499;28;20048;-52
2021/11/01 09:59:11;;;;;;;4.25;2.40;;;;;;;10.80;75.83;94822.75;5076973;28;20040;-52
2021/11/01 10:01:44;;;;;;;3.67;2.45;;;;;;;10.88;74.95;94827.13;5090317;28;20036;-53
2021/11/01 10:04:27;;;;;;;4.72;2.53;;;;;;;10.83;75.88;94819.31;5074147;28;20056;-50
2021/11/01 10:09:44;;;;;;;3.63;2.33;;;;;;;10.75;76.55;94823.03;5083234;28;20056;-51
2021/11/01 10:12:20;;;;;;;4.30;2.25;;;;;;;10.59;76.25;94822.34;5094852;28;20063;-50
2021/11/01 10:14:54;;;;;;;4.93;2.15;;;;;;;10.24;78.41;94823.25;5080508;28;20048;-51
2021/11/01 10:17:36;;;;;;;;;;;;;;;10.38;78.00;94814.63;5074900;28;20041;-50
2021/11/01 10:20:10;;;;;;;5.38;2.40;;;;;;;10.67;76.98;94824.06;5087624;28;20268;-50
2021/11/01 10:22:39;;;;;;;4.95;2.65;;;;;;;10.50;77.37;94817.19;5083455;28;20045;-50
2021/11/01 10:25:14;;;;;;;5.38;2.88;;;;;;;10.50;77.92;94826.09;5074369;28;20052;-52
2021/11/01 10:27:45;;;;;;;3.97;2.47;;;;;;;10.47;79.48;94818.69;5074460;28;20045;-49
2021/11/01 10:30:18;;;;;;;4.90;2.30;;;;;;;10.71;79.60;94830.31;5079188;28;20099;-53
2021/11/01 10:32:49;;;;;;;;;;;;;;;10.52;80.00;94831.91;5074152;28;20052;-52
2021/11/01 10:35:30;;;;;;;3.35;1.95;;;;;;;10.61;79.32;94837.09;5091823;28;20360;-53
2021/11/01 10:41:07;;;;;;;3.20;2.00;;;;;;;10.65;79.32;94829.81;5079766;28;20036;-52
2021/11/01 11:11:44;;;;;;;4.90;2.10;;;;;;;10.41;83.77;94800.41;5093831;28;20501;-50
2021/11/01 11:14:48;;;;;;;5.60;2.20;;;;;;;10.35;83.55;94799.13;5083919;28;20055;-51
2021/11/01 11:39:49;;;;;;;2.63;1.00;;;;;;;10.51;80.20;94778.94;5091796;28;19926;-47
2021/11/01 11:49:34;;;;;;;1.63;1.08;;;;;;;9.86;81.55;94773.44;5080990;28;20054;-47
2021/11/01 11:52:05;;;;;;;1.85;0.90;;;;;;;9.70;83.58;94773.50;5090843;28;20539;-49
2021/11/01 11:54:42;;;;;;;1.60;0.68;;;;;;;9.81;80.62;94771.81;5072219;28;20068;-48
2021/11/01 11:57:23;;;;;;;0.88;0.50;;;;;;;9.83;81.09;94769.53;5071661;28;20048;-52
2021/11/01 11:59:53;;;;;;;1.23;0.70;;;;;;;9.76;82.75;94764.00;5088059;28;20130;-50
2021/11/01 12:02:40;;;;;;;1.02;0.60;;;;;;;10.10;80.10;94758.84;5074017;28;20037;-49
2021/11/01 12:05:31;;;;;;;0.98;0.50;;;;;;;9.89;80.86;94761.94;5072527;28;20147;-49
2021/11/01 12:08:12;;;;;;;0.82;0.60;;;;;;;10.01;80.47;94758.31;5072697;28;20148;-48
2021/11/01 12:19:24;;;;;;;2.45;0.60;;;;;;;10.11;81.58;94751.53;5043756;28;20428;-50
2021/11/01 12:21:53;;;;;;;1.25;0.60;;;;;;;10.16;81.91;94745.84;5036655;28;20622;-48
2021/11/01 12:24:21;;;;;;;2.10;0.60;;;;;;;10.26;81.87;94742.56;5050994;28;20051;-48
2021/11/01 12:27:03;;;;;;;1.70;0.70;;;;;;;10.33;80.59;94748.09;5071556;28;20460;-47
2021/11/01 12:29:32;;;;;;;1.40;0.70;;;;;;;10.29;81.21;94747.25;5072094;28;20041;-52
2021/11/01 12:32:09;;;;;;;2.33;0.90;;;;;;;10.49;80.74;94743.38;5071923;28;20060;-49
2021/11/01 12:34:45;;;;;;;1.98;0.77;;;;;;;10.19;81.46;94747.81;5092075;28;20040;-50
2021/11/01 12:37:17;;;;;;;1.95;0.90;;;;;;;10.02;83.71;94749.06;5092260;28;20378;-52
2021/11/01 12:39:54;;;;;;;3.47;1.10;;;;;;;9.97;85.10;94746.63;5085935;28;20037;-48
2021/11/01 12:58:58;;;;;;;1.65;0.90;;;;;;;9.98;84.13;94742.81;5071514;28;20506;-47
2021/11/01 13:01:28;;;;;;;1.10;0.60;;;;;;;9.99;84.83;94741.66;5071639;28;20068;-50
2021/11/01 13:04:22;;;;;;;2.72;1.10;;;;;;;10.29;83.36;94736.44;5070886;28;20124;-50
2021/11/01 13:09:30;;;;;;;1.75;0.80;;;;;;;10.02;84.22;94738.25;5082517;28;19920;-48
2021/11/01 13:19:55;;;;;;;1.98;1.00;;;;;;;9.97;84.46;94730.44;5091133;28;20495;-48
2021/11/01 13:22:29;;;;;;;2.72;1.10;;;;;;;9.99;84.77;94730.84;5086567;28;20556;-51
2021/11/01 13:28:21;;;;;;;1.83;0.93;;;;;;;10.03;85.80;94726.28;5059152;28;19921;-48
2021/11/01 13:38:53;;;;;;;2.67;1.20;;;;;;;9.80;87.40;94724.31;5095454;28;20098;-51
2021/11/01 13:41:29;;;;;;;2.78;1.10;;;;;;;9.84;88.37;94718.97;5089131;28;20079;-51
2021/11/01 13:44:10;;;;;;;3.50;1.40;;;;;;;10.01;87.60;94710.44;5074373;28;20052;-51
2021/11/01 13:46:45;;;;;;;3.92;1.40;;;;;;;9.84;90.13;94710.88;5075283;28;20048;-50
2021/11/01 13:49:14;;;;;;;3.20;1.20;;;;;;;9.80;90.16;94716.22;5075219;28;20064;-49
2021/11/01 13:51:50;;;;;;;2.03;1.38;;;;;;;9.95;87.93;94719.22;5075196;28;20068;-50
2021/11/01 13:56:51;;;;;;;2.83;1.50;;;;;;;10.01;87.28;94721.25;5083321;28;20138;-49
2021/11/01 13:59:27;;;;;;;2.88;1.10;;;;;;;10.22;86.95;94725.50;5108279;22;20123;-45
2021/11/01 15:14:58;;;;;;;3.47;0.85;;;;;;;8.61;92.17;94709.44;5040626;28;20051;-48
2021/11/01 16:19:51;;;;;;;1.85;0.70;;;;;;;8.22;90.53;94699.56;5052237;28;20051;-47
2021/11/01 16:22:18;;;;;;;3.97;1.30;;;;;;;8.52;88.07;94689.97;5040209;28;20045;-51
2021/11/01 16:24:48;;;;;;;7.93;3.70;;;;;;;8.22;89.84;94691.50;5031912;28;20065;-47
2021/11/01 16:27:19;;;;;;;2.17;1.00;;;;;;;7.84;90.24;94695.53;5035245;28;20033;-49
2021/11/01 16:30:22;;;;;;;1.85;1.10;;;;;;;7.90;90.47;94702.25;5049901;28;20174;-48
2021/11/01 16:32:43;;;;;;;2.47;1.10;;;;;;;7.95;92.12;94696.59;5031852;28;20047;-48
2021/11/01 16:35:16;;;;;;;2.17;1.42;;;;;;;7.76;92.15;94699.94;5031524;28;20125;-49
2021/11/01 16:38:34;;;;;;;2.47;0.93;;;;;;;7.85;92.18;94707.88;5032214;28;20049;-49
2021/11/01 16:40:32;;;;;;;2.47;1.08;;;;;;;7.77;92.95;94706.91;5039931;28;20041;-49
2021/11/01 16:43:02;;;;;;;2.60;1.20;;;;;;;7.88;92.43;94712.56;5050893;28;20048;-48
2021/11/01 16:45:35;;;;;;;2.28;1.00;;;;;;;7.72;92.90;94718.69;5030628;28;20055;-49
2021/11/01 16:48:03;;;;;;;1.92;1.10;;;;;;;8.24;90.24;94716.97;5031609;28;20049;-51
2021/11/01 16:50:30;;;;;;;2.10;1.17;;;;;;;7.81;93.40;94723.94;5030525;28;20084;-48
2021/11/01 16:52:57;;;;;;;1.48;0.95;;;;;;;7.70;94.22;94720.97;5038219;28;20071;-51
2021/11/01 16:55:35;;;;;;;2.95;1.05;;;;;;;7.88;92.19;94728.72;5031520;28;20566;-49
2021/11/01 16:58:16;;;;;;;2.30;1.20;;;;;;;7.66;92.77;94711.97;5046659;28;20054;-49
2021/11/01 17:00:55;;;;;;;1.80;1.05;;;;;;;7.40;94.28;94725.09;5030448;28;20041;-48
2021/11/01 17:23:14;;;;;;;1.70;1.00;;;;;;;7.83;92.37;94732.47;5049587;28;20041;-50
2021/11/01 17:25:24;;;;;;;2.47;1.10;;;;;;;7.91;91.44;94734.22;5036018;28;20131;-48
2021/11/01 18:40:22;;;;;;;3.72;1.92;;;;;;;7.19;95.08;94715.28;5041151;28;20044;-48
2021/11/01 18:45:51;;;;;;;1.65;0.93;;;;;;;7.05;95.08;94712.16;5034338;28;20051;-46
2021/11/01 18:51:10;;;;;;;1.58;0.90;;;;;;;7.12;95.25;94717.78;5053590;28;20136;-48
2021/11/01 18:53:58;;;;;;;1.25;0.93;;;;;;;6.99;95.18;94721.59;5036193;28;20471;-49
2021/11/01 18:56:33;;;;;;;1.65;1.10;;;;;;;6.94;95.94;94729.91;5033423;28;20053;-48
2021/11/01 18:59:04;;;;;;;3.45;1.70;;;;;;;6.88;96.85;94713.19;5053260;28;20044;-46
2021/11/01 19:01:35;;;;;;;2.78;1.05;;;;;;;6.86;96.21;94718.16;5049146;28;20088;-50
2021/11/01 19:04:13;;;;;;;2.25;1.00;;;;;;;6.90;96.07;94718.25;5032748;28;20061;-47
2021/11/01 19:06:48;;;;;;;1.40;0.88;;;;;;;6.92;96.51;94710.63;5033674;28;20490;-47
2021/11/01 19:09:43;;;;;;;1.92;0.98;;;;;;;6.84;96.87;94716.91;5032012;28;20052;-46
2021/11/01 20:06:32;;;;;;;1.42;0.88;;;;;;;7.18;96.67;94648.38;5051688;28;20048;-49
2021/11/01 21:24:50;;;;;;;1.83;1.10;;;;;;;7.45;94.96;94598.38;5051147;28;20045;-49
2021/11/01 21:27:21;;;;;;;1.65;0.98;;;;;;;7.50;95.85;94593.50;5050730;28;20098;-52
2021/11/01 21:29:49;;;;;;;1.58;0.93;;;;;;;7.37;95.37;94585.84;5067715;28;20551;-47
2021/11/01 21:32:16;;;;;;;1.35;0.98;;;;;;;7.43;94.71;94584.47;5070457;28;20071;-47
2021/11/01 21:37:30;;;;;;;1.85;1.13;;;;;;;7.39;95.01;94572.84;5066769;28;20039;-49
2021/11/01 21:39:59;;;;;;;1.65;0.90;;;;;;;7.40;94.35;94563.63;5057068;28;20478;-53
2021/11/01 21:42:28;;;;;;;2.15;1.58;;;;;;;7.44;95.48;94559.94;5068172;28;20593;-54
2021/11/01 21:44:55;;;;;;;1.45;0.95;;;;;;;7.45;95.05;94566.09;5069195;28;20131;-53
2021/11/01 21:47:23;;;;;;;2.22;1.13;;;;;;;7.46;95.32;94568.41;5071080;28;20123;-50
2021/11/01 21:49:55;;;;;;;3.55;1.50;;;;;;;7.57;95.20;94562.53;5068827;28;20387;-50
2021/11/01 21:52:25;;;;;;;2.05;1.10;;;;;;;7.57;95.27;94557.94;5048926;28;20041;-51
2021/11/01 21:54:58;;;;;;;4.28;1.27;;;;;;;7.48;95.00;94562.72;5069608;28;20143;-52
2021/11/01 22:00:16;;;;;;;3.63;1.55;;;;;;;7.47;93.72;94555.75;5058110;28;20061;-51
2021/11/01 22:19:35;;;;;;;1.63;1.00;;;;;;;7.40;94.48;94539.44;5074909;28;20086;-50
2021/11/01 22:24:58;;;;;;;0.98;0.70;;;;;;;7.40;95.08;94534.03;5071277;28;20152;-52
2021/11/01 22:41:17;;;;;;;3.95;1.55;;;;;;;7.68;93.53;94521.28;5068605;28;20114;-52
2021/11/01 22:56:49;;;;;;;2.60;0.88;;;;;;;7.40;95.51;94520.59;5074160;28;20056;-52
2021/11/01 22:59:18;;;;;;;2.88;0.98;;;;;;;7.53;95.44;94514.00;5072422;28;20056;-48
2021/11/01 23:01:47;;;;;;;0.93;0.65;;;;;;;7.41;93.56;94506.00;5073102;28;20048;-52
2021/11/01 23:04:43;;;;;;;1.40;0.70;;;;;;;7.28;93.47;94504.50;5053170;28;20409;-49
2021/11/01 23:32:05;;;;;;;1.30;0.65;;;;;;;7.32;93.67;94498.13;5061784;28;20375;-49
2021/11/01 23:34:32;;;;;;;0.68;0.60;;;;;;;7.35;93.81;94497.41;5068054;28;20049;-47
2021/11/01 23:36:59;;;;;;;0.88;0.47;;;;;;;7.33;94.23;94488.13;5080980;28;20140;-49
2021/11/01 23:39:26;;;;;;;1.38;0.70;;;;;;;7.29;94.02;94498.81;5072803;28;20051;-49
2021/11/01 23:41:54;;;;;;;0.95;0.60;;;;;;;7.52;92.96;94490.91;5073001;28;20029;-49
2021/11/01 23:44:22;;;;;;;0.70;0.60;;;;;;;7.65;90.27;94495.06;5072571;28;20052;-52
2021/11/01 23:46:51;;;;;;;1.35;0.70;;;;;;;7.48;91.84;94498.91;5073148;28;20421;-47
2021/11/01 23:49:19;;;;;;;0.80;0.70;;;;;;;7.53;92.25;94503.22;5072863;28;20049;-46
2021/11/01 23:52:12;;;;;;;1.03;0.60;;;;;;;7.85;90.03;94501.31;5072908;28;20037;-51
2021/11/01 23:54:43;;;;;;;0.75;0.57;;;;;;;7.50;90.89;94487.78;5072371;28;20296;-48
2021/11/01 23:57:15;;;;;;;1.23;0.70;;;;;;;7.68;90.72;94489.00;5072724;28;20067;-50
2021/11/01 23:59:43;;;;;;;1.40;0.77;;;;;;;7.91;89.80;94494.53;5071070;28;20493;-51
